Time;durP1;ratioP1;P1;durP2;ratioP2;P2;SDS_P1;SDS_P2;PMS_P1;PMS_P2;Temp;Humidity;BMP_temperature;BMP_pressure;BME280_temperature;BME280_humidity;BME280_pressure;Samples;Min_cycle;Max_cycle;Signal;HPM_P1;HPM_P2
2021/01/10 00:00:13;;;;;;;2.20;0.70;;;25.80;73.80;;;;;;4992735;28;20192;-79
2021/01/10 00:02:41;;;;;;;2.50;1.00;;;26.10;72.30;;;;;;4976729;28;20180;-79
2021/01/10 00:05:20;;;;;;;2.40;0.60;;;26.10;72.40;;;;;;4981759;28;20300;-79
2021/01/10 00:07:48;;;;;;;2.53;0.50;;;26.30;71.90;;;;;;4973478;28;20178;-79
2021/01/10 00:10:16;;;;;;;1.60;0.50;;;26.50;70.70;;;;;;4993436;28;20265;-78
2021/01/10 00:12:44;;;;;;;1.90;0.63;;;26.30;70.70;;;;;;4992878;28;20629;-78
2021/01/10 00:15:14;;;;;;;2.60;0.50;;;26.30;70.20;;;;;;4980150;28;20216;-79
2021/01/10 00:17:48;;;;;;;0.70;0.40;;;26.40;69.70;;;;;;4977715;28;20214;-76
2021/01/10 00:20:17;;;;;;;0.70;0.40;;;26.30;69.80;;;;;;4973978;28;20241;-78
2021/01/10 00:22:52;;;;;;;1.10;0.53;;;26.20;70.20;;;;;;4974204;28;20182;-78
2021/01/10 00:25:20;;;;;;;0.60;0.53;;;26.50;70.30;;;;;;4979108;28;20213;-79
2021/01/10 00:27:48;;;;;;;2.23;1.33;;;26.70;68.70;;;;;;4985100;28;20190;-77
2021/01/10 00:30:19;;;;;;;3.20;2.60;;;26.70;69.40;;;;;;4984303;28;20213;-77
2021/01/10 00:32:50;;;;;;;1.53;0.70;;;27.00;68.50;;;;;;4996267;28;20273;-78
2021/01/10 00:35:19;;;;;;;3.10;0.70;;;27.10;66.60;;;;;;4984548;28;20265;-77
2021/01/10 00:37:57;;;;;;;1.00;0.40;;;27.00;68.30;;;;;;4979915;28;20189;-76
2021/01/10 00:40:26;;;;;;;1.00;0.50;;;27.30;66.70;;;;;;4992459;28;20193;-77
2021/01/10 00:42:54;;;;;;;1.33;0.30;;;27.60;66.50;;;;;;4987369;28;20182;-76
2021/01/10 00:45:22;;;;;;;0.97;0.50;;;27.60;65.80;;;;;;4996082;28;20174;-78
2021/01/10 00:47:53;;;;;;;3.80;0.70;;;27.30;68.50;;;;;;4980079;28;20261;-76
2021/01/10 00:50:20;;;;;;;1.57;0.60;;;27.40;68.60;;;;;;4987315;28;20653;-78
2021/01/10 00:52:47;;;;;;;0.87;0.47;;;27.60;68.60;;;;;;4985556;28;20652;-76
2021/01/10 00:55:15;;;;;;;2.63;0.80;;;27.70;69.00;;;;;;4993548;28;20237;-78
2021/01/10 00:57:44;;;;;;;1.80;0.90;;;27.70;68.50;;;;;;4986159;28;20257;-77
2021/01/10 01:00:17;;;;;;;3.10;0.70;;;27.50;69.60;;;;;;4980077;28;20205;-77
2021/01/10 01:02:48;;;;;;;4.70;0.70;;;27.40;70.50;;;;;;4994151;28;20178;-79
2021/01/10 01:05:15;;;;;;;2.40;0.73;;;27.40;70.00;;;;;;4994786;28;20233;-79
2021/01/10 01:07:43;;;;;;;2.80;1.10;;;27.20;71.00;;;;;;4996372;28;20201;-84
2021/01/10 01:10:11;;;;;;;2.03;1.00;;;27.20;71.60;;;;;;4996275;28;20575;-77
2021/01/10 01:12:38;;;;;;;3.13;0.67;;;27.40;71.00;;;;;;4996495;28;20189;-81
2021/01/10 01:15:09;;;;;;;4.67;0.80;;;27.30;71.30;;;;;;4995979;28;20609;-77
2021/01/10 01:17:36;;;;;;;3.67;0.67;;;27.40;71.10;;;;;;4996289;28;20248;-79
2021/01/10 01:20:05;;;;;;;4.00;0.60;;;27.40;71.50;;;;;;4996376;28;20184;-79
2021/01/10 01:22:32;;;;;;;1.30;0.63;;;27.40;71.30;;;;;;4996090;28;20540;-77
2021/01/10 01:25:02;;;;;;;2.47;0.50;;;27.30;72.20;;;;;;4996130;28;20176;-78
2021/01/10 01:27:32;;;;;;;1.43;0.67;;;27.30;72.40;;;;;;4996246;28;20640;-77
2021/01/10 01:29:59;;;;;;;0.93;0.50;;;27.40;71.70;;;;;;4996002;28;20174;-79
2021/01/10 01:32:27;;;;;;;4.47;0.50;;;27.50;70.60;;;;;;4996084;28;20177;-79
2021/01/10 01:34:54;;;;;;;5.53;1.00;;;27.80;70.70;;;;;;4995810;28;20221;-79
2021/01/10 01:37:21;;;;;;;3.50;0.70;;;27.90;69.70;;;;;;4993204;28;20273;-74
2021/01/10 01:39:49;;;;;;;1.97;0.43;;;27.70;69.70;;;;;;4995680;28;20178;-77
2021/01/10 01:42:16;;;;;;;1.60;0.70;;;27.60;70.70;;;;;;4995176;28;20594;-79
2021/01/10 01:44:46;;;;;;;2.90;0.50;;;27.70;70.20;;;;;;4995224;28;20533;-78
2021/01/10 01:47:18;;;;;;;3.20;0.60;;;27.50;71.00;;;;;;4995732;28;20562;-79
2021/01/10 01:49:49;;;;;;;3.50;0.57;;;27.40;70.50;;;;;;4995605;28;20177;-78
2021/01/10 01:52:16;;;;;;;2.43;0.63;;;27.70;70.40;;;;;;4995750;28;20205;-76
2021/01/10 01:54:44;;;;;;;2.60;0.40;;;27.70;69.30;;;;;;4994182;28;20269;-78
2021/01/10 01:57:14;;;;;;;1.40;0.43;;;28.00;69.00;;;;;;4992722;28;20658;-79
2021/01/10 01:59:42;;;;;;;4.67;0.67;;;28.30;68.00;;;;;;4995268;28;20581;-78
2021/01/10 02:02:09;;;;;;;1.17;0.63;;;28.40;66.60;;;;;;4993633;28;20206;-78
2021/01/10 02:05:07;;;;;;;2.00;0.43;;;28.40;67.50;;;;;;4994780;28;20214;-78
2021/01/10 02:07:40;;;;;;;1.50;0.37;;;28.60;67.00;;;;;;4994781;28;20198;-77
2021/01/10 02:10:11;;;;;;;1.63;0.40;;;28.80;66.30;;;;;;4983279;28;20250;-79
2021/01/10 02:12:51;;;;;;;2.63;0.57;;;28.80;66.20;;;;;;4976829;28;20624;-80
2021/01/10 02:15:23;;;;;;;4.63;0.67;;;29.10;65.50;;;;;;4995159;28;20204;-78
2021/01/10 02:17:53;;;;;;;1.40;0.63;;;28.80;65.80;;;;;;4995115;28;20182;-78
2021/01/10 02:20:31;;;;;;;4.60;0.70;;;28.80;66.10;;;;;;4995102;28;20301;-77
2021/01/10 02:23:13;;;;;;;2.53;0.67;;;28.90;65.70;;;;;;4995189;28;20554;-79
2021/01/10 02:25:44;;;;;;;1.87;0.53;;;28.80;65.50;;;;;;4980562;28;20200;-78
2021/01/10 02:28:13;;;;;;;4.97;0.70;;;29.00;63.90;;;;;;4991164;28;20565;-78
2021/01/10 02:30:43;;;;;;;3.33;0.40;;;29.00;64.70;;;;;;4992294;28;20185;-77
2021/01/10 02:33:19;;;;;;;2.43;0.77;;;29.30;62.40;;;;;;4990522;28;20281;-79
2021/01/10 02:35:49;;;;;;;1.60;0.60;;;29.40;62.10;;;;;;4989345;28;20573;-78
2021/01/10 02:38:53;;;;;;;1.33;0.57;;;29.70;61.70;;;;;;4975980;28;20661;-78
2021/01/10 02:41:41;;;;;;;0.57;0.30;;;29.50;61.20;;;;;;4975225;28;20174;-78
2021/01/10 02:44:20;;;;;;;0.47;0.30;;;29.20;61.10;;;;;;4974594;28;20258;-76
2021/01/10 02:46:50;;;;;;;0.80;0.50;;;29.30;60.30;;;;;;4987541;28;20209;-76
2021/01/10 02:49:20;;;;;;;0.53;0.30;;;29.50;60.90;;;;;;4979197;28;20194;-79
2021/01/10 02:51:51;;;;;;;1.20;0.40;;;29.40;58.80;;;;;;4975177;28;20606;-81
2021/01/10 02:54:20;;;;;;;0.20;0.20;;;29.50;58.30;;;;;;4975056;28;20214;-79
2021/01/10 02:56:55;;;;;;;1.83;0.33;;;29.30;57.30;;;;;;4993632;28;20178;-76
2021/01/10 02:59:25;;;;;;;0.57;0.27;;;29.50;56.30;;;;;;4993849;28;20663;-80
2021/01/10 03:01:56;;;;;;;2.83;0.30;;;29.40;56.60;;;;;;4994082;28;20609;-76
2021/01/10 03:04:25;;;;;;;0.67;0.33;;;29.40;56.20;;;;;;4973629;28;20700;-78
2021/01/10 03:06:54;;;;;;;1.27;0.43;;;29.50;57.10;;;;;;4974617;28;20167;-77
2021/01/10 03:09:22;;;;;;;0.40;0.40;;;29.30;57.90;;;;;;4974960;28;20198;-79
2021/01/10 03:11:49;;;;;;;2.40;0.50;;;29.50;58.60;;;;;;4988291;28;20244;-79
2021/01/10 03:14:17;;;;;;;1.55;0.35;;;29.30;59.00;;;;;;4994183;28;20245;-79
2021/01/10 03:16:44;;;;;;;2.33;0.97;;;29.60;59.10;;;;;;4994020;28;20261;-77
2021/01/10 03:19:12;;;;;;;0.93;0.30;;;29.50;59.90;;;;;;4993606;28;20197;-80
2021/01/10 03:21:39;;;;;;;0.83;0.40;;;29.70;59.40;;;;;;4993872;28;20273;-78
2021/01/10 03:24:07;;;;;;;0.98;0.55;;;29.70;58.60;;;;;;4979793;28;20189;-82
2021/01/10 03:26:34;;;;;;;1.27;0.40;;;29.60;58.30;;;;;;4988420;28;20174;-77
2021/01/10 03:29:01;;;;;;;3.50;0.33;;;29.40;59.20;;;;;;4982962;28;20680;-79
2021/01/10 03:31:30;;;;;;;1.30;0.50;;;29.40;59.90;;;;;;4994399;28;20177;-76
2021/01/10 03:33:57;;;;;;;2.40;0.43;;;29.40;60.10;;;;;;4980566;28;20280;-80
2021/01/10 03:36:24;;;;;;;1.70;0.40;;;29.30;60.10;;;;;;4994430;28;20161;-78
2021/01/10 03:38:52;;;;;;;1.20;0.40;;;29.40;60.20;;;;;;4994183;28;20181;-77
2021/01/10 03:41:19;;;;;;;3.88;0.50;;;29.40;60.40;;;;;;4993865;28;20224;-78
2021/01/10 03:43:47;;;;;;;1.70;0.30;;;29.20;60.30;;;;;;4993889;28;20301;-79
2021/01/10 03:46:14;;;;;;;7.63;0.60;;;29.60;60.40;;;;;;4977762;28;20201;-80
2021/01/10 03:48:41;;;;;;;0.90;0.45;;;30.10;59.10;;;;;;4993428;28;20178;-78
2021/01/10 03:51:09;;;;;;;2.22;0.50;;;29.70;59.30;;;;;;4993705;28;20587;-79
2021/01/10 03:53:36;;;;;;;3.65;1.58;;;29.40;59.20;;;;;;4993924;28;20233;-79
2021/01/10 03:56:04;;;;;;;2.27;0.57;;;30.00;60.10;;;;;;4993702;28;20177;-78
2021/01/10 03:58:31;;;;;;;2.40;0.50;;;30.00;57.80;;;;;;4990890;28;20185;-78
2021/01/10 04:00:59;;;;;;;2.55;0.43;;;30.30;58.10;;;;;;4984180;28;20189;-79
2021/01/10 04:03:26;;;;;;;2.03;0.40;;;30.20;56.70;;;;;;4982268;28;20190;-79
2021/01/10 04:05:53;;;;;;;1.10;0.43;;;30.00;57.30;;;;;;4981882;28;20242;-80
2021/01/10 04:08:21;;;;;;;4.88;0.60;;;30.00;57.40;;;;;;4983792;28;20265;-77
2021/01/10 04:10:48;;;;;;;2.78;0.50;;;30.10;57.90;;;;;;4989145;28;20186;-77
2021/01/10 04:13:16;;;;;;;0.30;0.22;;;30.20;56.90;;;;;;4987320;28;20241;-80
2021/01/10 04:15:43;;;;;;;0.50;0.40;;;30.10;56.50;;;;;;4986302;28;20650;-79
2021/01/10 04:18:11;;;;;;;0.43;0.40;;;30.00;56.90;;;;;;4984433;28;20530;-78
2021/01/10 04:20:38;;;;;;;0.88;0.30;;;29.80;57.20;;;;;;4986565;28;20195;-78
2021/01/10 04:23:08;;;;;;;0.60;0.40;;;29.70;56.80;;;;;;4984188;28;20222;-77
2021/01/10 04:25:36;;;;;;;0.60;0.47;;;29.90;57.50;;;;;;4989927;28;20185;-78
2021/01/10 04:28:03;;;;;;;1.23;0.30;;;29.90;57.00;;;;;;4980730;28;21978;-80
2021/01/10 04:30:31;;;;;;;1.17;0.45;;;29.90;57.70;;;;;;4985718;28;20190;-78
2021/01/10 04:32:58;;;;;;;2.97;0.65;;;30.00;58.90;;;;;;4980234;28;20721;-79
2021/01/10 04:35:26;;;;;;;2.30;1.90;;;30.40;58.30;;;;;;4990666;28;20547;-78
2021/01/10 04:37:53;;;;;;;1.95;1.75;;;30.70;58.60;;;;;;4983270;28;20183;-77
2021/01/10 04:40:21;;;;;;;2.60;0.52;;;31.10;57.30;;;;;;4992218;28;20637;-79
2021/01/10 04:42:49;;;;;;;2.75;0.60;;;31.10;57.20;;;;;;4995513;28;20633;-77
2021/01/10 04:45:19;;;;;;;2.47;0.75;;;31.30;57.30;;;;;;4992512;28;20190;-80
2021/01/10 04:47:47;;;;;;;1.80;0.45;;;31.20;56.50;;;;;;4989223;28;20236;-80
2021/01/10 04:50:16;;;;;;;1.42;0.50;;;31.40;56.90;;;;;;4991742;28;20609;-78
2021/01/10 04:52:45;;;;;;;1.85;0.57;;;30.60;57.60;;;;;;4982074;28;20185;-78
2021/01/10 04:55:14;;;;;;;3.70;1.63;;;30.40;58.90;;;;;;4982704;28;20599;-79
2021/01/10 04:57:42;;;;;;;3.08;0.47;;;30.40;59.40;;;;;;4994070;28;20650;-79
2021/01/10 05:00:11;;;;;;;2.10;0.50;;;29.90;60.40;;;;;;4989397;28;20277;-79
2021/01/10 05:02:55;;;;;;;0.65;0.40;;;30.50;59.50;;;;;;4991758;28;20212;-80
2021/01/10 05:05:24;;;;;;;0.68;0.30;;;30.80;59.30;;;;;;4986232;28;20644;-78
2021/01/10 05:07:51;;;;;;;3.47;0.70;;;30.90;58.70;;;;;;4992982;28;20190;-80
2021/01/10 05:10:19;;;;;;;2.70;0.50;;;30.70;58.60;;;;;;4988345;28;20194;-78
2021/01/10 05:12:46;;;;;;;4.05;0.45;;;30.70;59.70;;;;;;4991897;28;20178;-76
2021/01/10 05:15:14;;;;;;;0.88;0.45;;;30.60;59.60;;;;;;4982491;28;20191;-78
2021/01/10 05:17:46;;;;;;;2.35;1.00;;;30.80;59.80;;;;;;4985072;28;20757;-78
2021/01/10 05:20:14;;;;;;;0.98;0.50;;;31.20;58.30;;;;;;4989027;28;20202;-79
2021/01/10 05:22:41;;;;;;;1.42;0.40;;;31.50;56.80;;;;;;4989574;28;20277;-79
2021/01/10 05:25:13;;;;;;;2.45;0.50;;;31.40;57.80;;;;;;4985161;28;20492;-77
2021/01/10 05:27:41;;;;;;;0.82;0.50;;;31.70;57.00;;;;;;4987405;28;20217;-80
2021/01/10 05:30:09;;;;;;;3.20;0.50;;;32.10;56.60;;;;;;4976391;28;20178;-79
2021/01/10 05:32:36;;;;;;;1.73;0.40;;;31.80;56.50;;;;;;4983768;28;20187;-80
2021/01/10 05:35:04;;;;;;;1.17;0.40;;;30.80;57.90;;;;;;4995802;28;20221;-80
2021/01/10 05:37:31;;;;;;;0.30;0.30;;;30.70;58.70;;;;;;4996173;28;20221;-78
2021/01/10 05:39:59;;;;;;;3.00;0.35;;;30.70;59.20;;;;;;4992844;28;20546;-79
2021/01/10 05:42:30;;;;;;;2.65;0.65;;;30.20;59.00;;;;;;4986901;28;20273;-79
2021/01/10 05:44:57;;;;;;;1.52;0.40;;;30.20;60.30;;;;;;4977621;28;20183;-78
2021/01/10 05:47:37;;;;;;;0.45;0.30;;;30.60;59.50;;;;;;4981455;28;20214;-76
2021/01/10 05:50:15;;;;;;;4.78;0.77;;;30.30;59.50;;;;;;4978460;28;20213;-78
2021/01/10 05:52:43;;;;;;;1.58;0.50;;;30.80;59.60;;;;;;4991784;28;20220;-80
2021/01/10 05:55:11;;;;;;;1.95;0.57;;;30.70;58.90;;;;;;4992194;28;20190;-76
2021/01/10 05:57:38;;;;;;;1.58;0.40;;;31.40;57.80;;;;;;4980154;28;20283;-76
2021/01/10 06:00:07;;;;;;;1.08;0.30;;;31.20;57.40;;;;;;4995013;28;20252;-78
2021/01/10 06:02:36;;;;;;;2.03;0.40;;;30.50;58.30;;;;;;4983307;28;20272;-77
2021/01/10 06:05:20;;;;;;;0.55;0.40;;;30.30;59.60;;;;;;4986257;28;20838;-77
2021/01/10 06:07:49;;;;;;;1.65;0.40;;;30.30;59.30;;;;;;4994506;28;20186;-78
2021/01/10 06:10:29;;;;;;;0.93;0.50;;;30.10;60.30;;;;;;4994010;28;20186;-79
2021/01/10 06:13:05;;;;;;;1.05;0.40;;;30.00;59.40;;;;;;4988188;28;20193;-77
2021/01/10 06:15:33;;;;;;;2.53;0.43;;;30.30;59.80;;;;;;4995279;28;20292;-79
2021/01/10 06:18:06;;;;;;;1.08;0.40;;;30.00;59.90;;;;;;4994655;28;20174;-77
2021/01/10 06:20:34;;;;;;;0.38;0.32;;;30.40;60.00;;;;;;4986381;28;20182;-75
2021/01/10 06:23:03;;;;;;;1.80;0.50;;;30.30;59.50;;;;;;4993047;28;20282;-75
2021/01/10 06:25:43;;;;;;;1.48;0.45;;;30.20;59.70;;;;;;4989557;28;20214;-78
2021/01/10 06:28:16;;;;;;;3.72;0.60;;;30.90;59.40;;;;;;5005959;28;20628;-78
2021/01/10 06:31:01;;;;;;;4.45;0.60;;;31.00;59.90;;;;;;4990621;28;20342;-75
2021/01/10 06:33:31;;;;;;;1.17;0.30;;;30.60;60.20;;;;;;4986963;28;20205;-78
2021/01/10 06:36:08;;;;;;;1.63;0.38;;;30.60;61.10;;;;;;4994232;28;20272;-77
2021/01/10 06:38:38;;;;;;;2.50;0.55;;;30.30;60.90;;;;;;4984831;28;20181;-78
2021/01/10 06:41:29;;;;;;;3.03;0.90;;;30.10;61.80;;;;;;4996028;28;20560;-78
2021/01/10 06:43:59;;;;;;;1.80;0.55;;;30.00;62.60;;;;;;4975366;28;20662;-76
2021/01/10 06:46:27;;;;;;;2.65;0.40;;;29.90;61.80;;;;;;4983521;28;20184;-77
2021/01/10 06:48:55;;;;;;;1.10;0.57;;;30.10;61.60;;;;;;4988798;28;20222;-78
2021/01/10 06:51:32;;;;;;;1.05;0.47;;;29.50;62.00;;;;;;4994112;28;20181;-78
2021/01/10 06:54:06;;;;;;;2.13;0.40;;;29.70;62.60;;;;;;4993497;28;20656;-78
2021/01/10 06:56:34;;;;;;;1.77;0.65;;;29.70;62.70;;;;;;4993632;28;20550;-78
2021/01/10 06:59:12;;;;;;;2.20;0.43;;;29.90;61.20;;;;;;4992408;28;20273;-76
2021/01/10 07:01:51;;;;;;;0.85;0.20;;;29.60;60.10;;;;;;4989517;28;20178;-78
2021/01/10 07:04:21;;;;;;;1.83;0.50;;;30.20;59.40;;;;;;4981709;28;20300;-80
2021/01/10 07:06:53;;;;;;;0.93;0.40;;;29.80;60.60;;;;;;4994144;28;20270;-78
2021/01/10 07:09:22;;;;;;;1.23;0.88;;;29.60;62.10;;;;;;4988962;28;20178;-77
2021/01/10 07:11:51;;;;;;;11.07;6.27;;;29.60;62.80;;;;;;4983564;28;20181;-78
2021/01/10 07:14:19;;;;;;;2.72;1.55;;;29.60;62.30;;;;;;4992856;28;20677;-78
2021/01/10 07:16:46;;;;;;;2.38;0.77;;;29.70;62.60;;;;;;4980715;28;20551;-78
2021/01/10 07:19:15;;;;;;;3.30;0.50;;;29.80;63.10;;;;;;4985664;28;20754;-79
2021/01/10 07:21:46;;;;;;;1.85;0.50;;;29.70;62.30;;;;;;4991903;28;20692;-77
2021/01/10 07:24:16;;;;;;;0.77;0.45;;;29.60;61.30;;;;;;4991122;28;20181;-78
2021/01/10 07:26:52;;;;;;;0.67;0.50;;;29.40;61.50;;;;;;4979871;28;20193;-76
2021/01/10 07:29:44;;;;;;;1.90;0.47;;;29.00;63.40;;;;;;4987396;28;20225;-77
2021/01/10 07:32:13;;;;;;;1.38;0.40;;;28.70;65.00;;;;;;4984095;28;20229;-76
2021/01/10 07:34:47;;;;;;;1.07;0.43;;;28.10;66.60;;;;;;4991464;28;20308;-77
2021/01/10 07:37:17;;;;;;;3.70;0.40;;;27.80;67.20;;;;;;4994489;28;20513;-81
2021/01/10 07:39:55;;;;;;;7.00;1.90;;;27.40;68.60;;;;;;4976508;28;20269;-81
2021/01/10 07:42:24;;;;;;;1.77;0.70;;;26.90;69.70;;;;;;4992065;28;20205;-76
2021/01/10 07:44:59;;;;;;;0.60;0.60;;;26.70;70.60;;;;;;4980412;28;20186;-75
2021/01/10 07:47:35;;;;;;;2.27;1.30;;;26.50;71.70;;;;;;4991437;28;20188;-76
2021/01/10 07:50:10;;;;;;;3.43;1.43;;;26.20;72.00;;;;;;4984945;28;20253;-77
2021/01/10 07:52:48;;;;;;;2.20;0.90;;;26.00;72.60;;;;;;4988860;28;20174;-77
2021/01/10 07:55:18;;;;;;;4.87;0.60;;;25.90;73.20;;;;;;4989492;28;20188;-76
2021/01/10 07:57:46;;;;;;;0.70;0.57;;;25.80;73.30;;;;;;4982431;28;20171;-78
2021/01/10 08:00:20;;;;;;;3.20;0.63;;;25.70;71.90;;;;;;4982245;28;20186;-77
2021/01/10 08:03:02;;;;;;;3.17;0.90;;;25.70;73.30;;;;;;4991024;28;20582;-75
2021/01/10 08:05:29;;;;;;;3.20;1.03;;;25.60;74.60;;;;;;4993260;28;20231;-76
2021/01/10 08:08:15;;;;;;;3.03;0.70;;;25.50;73.70;;;;;;4991892;28;20184;-80
2021/01/10 08:10:52;;;;;;;1.10;0.47;;;25.40;75.90;;;;;;4987071;28;20182;-77
2021/01/10 08:13:37;;;;;;;0.53;0.50;;;25.30;75.50;;;;;;4976588;28;20654;-74
2021/01/10 08:16:08;;;;;;;0.50;0.40;;;25.10;75.80;;;;;;4980664;28;20220;-76
2021/01/10 08:18:42;;;;;;;2.40;0.60;;;25.10;77.90;;;;;;4977991;28;20187;-76
2021/01/10 08:21:14;;;;;;;3.27;0.70;;;25.00;79.30;;;;;;4978642;28;20269;-76
2021/01/10 08:23:43;;;;;;;3.47;2.47;;;24.90;80.20;;;;;;4987225;28;20544;-77
2021/01/10 08:26:13;;;;;;;1.27;1.00;;;24.70;80.80;;;;;;4987953;28;20644;-76
2021/01/10 08:28:48;;;;;;;1.17;0.60;;;24.60;81.90;;;;;;4986903;28;20645;-76
2021/01/10 08:31:24;;;;;;;1.77;0.90;;;24.60;82.30;;;;;;4984128;28;20189;-74
2021/01/10 08:34:05;;;;;;;3.33;0.60;;;24.50;82.00;;;;;;4990129;28;20214;-75
2021/01/10 08:36:33;;;;;;;4.10;0.70;;;24.40;82.70;;;;;;4987644;28;20194;-76
2021/01/10 08:39:09;;;;;;;6.00;1.20;;;24.40;83.20;;;;;;4989208;28;20175;-80
2021/01/10 08:41:37;;;;;;;2.20;0.47;;;24.40;83.40;;;;;;4989476;28;20536;-76
2021/01/10 08:44:12;;;;;;;0.73;0.73;;;24.30;84.00;;;;;;4986660;28;20217;-75
2021/01/10 08:46:50;;;;;;;3.00;0.80;;;24.20;84.90;;;;;;4982192;28;20236;-76
2021/01/10 08:49:19;;;;;;;2.17;0.50;;;24.20;85.30;;;;;;4984778;28;20176;-76
2021/01/10 08:51:49;;;;;;;0.90;0.57;;;24.20;85.80;;;;;;4985102;28;20210;-75
2021/01/10 08:54:24;;;;;;;2.77;0.53;;;24.10;86.60;;;;;;4986712;28;20206;-75
2021/01/10 08:56:53;;;;;;;0.87;0.50;;;24.10;86.90;;;;;;4991054;28;20178;-77
2021/01/10 08:59:21;;;;;;;2.63;0.50;;;24.10;86.90;;;;;;4991327;28;20201;-75
2021/01/10 09:01:49;;;;;;;1.50;0.50;;;23.90;87.70;;;;;;4991615;28;20178;-76
2021/01/10 09:04:17;;;;;;;3.27;0.60;;;23.80;87.70;;;;;;4989748;28;20213;-75
2021/01/10 09:06:57;;;;;;;6.10;1.00;;;23.80;87.30;;;;;;4985849;28;20185;-79
2021/01/10 09:09:46;;;;;;;2.20;0.83;;;23.70;87.60;;;;;;4991903;28;20209;-80
2021/01/10 09:12:25;;;;;;;0.87;0.70;;;23.60;87.00;;;;;;4988154;28;20217;-77
2021/01/10 09:14:58;;;;;;;3.23;0.53;;;23.60;87.50;;;;;;4993286;28;20224;-79
2021/01/10 09:17:35;;;;;;;7.13;1.90;;;23.50;88.20;;;;;;4990036;28;20210;-77
2021/01/10 09:20:28;;;;;;;1.70;1.37;;;23.40;89.50;;;;;;4993461;28;20181;-81
2021/01/10 09:22:57;;;;;;;2.47;0.70;;;23.40;90.30;;;;;;4989817;28;20208;-83
2021/01/10 09:25:25;;;;;;;2.13;0.70;;;23.40;90.60;;;;;;4987956;28;20233;-83
2021/01/10 09:28:19;;;;;;;2.50;0.57;;;23.30;90.80;;;;;;4990771;28;20252;-79
2021/01/10 09:30:56;;;;;;;0.97;0.47;;;23.30;91.10;;;;;;4994946;28;20589;-81
2021/01/10 09:33:31;;;;;;;8.40;0.93;;;23.20;91.20;;;;;;4984548;28;20193;-78
2021/01/10 09:36:03;;;;;;;1.67;0.50;;;23.10;91.30;;;;;;4987799;28;20192;-82
2021/01/10 09:38:33;;;;;;;2.20;0.50;;;23.10;91.50;;;;;;4992354;28;20270;-84
2021/01/10 09:41:06;;;;;;;5.17;0.60;;;23.10;91.60;;;;;;4989114;28;20190;-77
2021/01/10 09:43:50;;;;;;;0.77;0.50;;;23.10;91.70;;;;;;4982046;28;20182;-83
2021/01/10 09:46:34;;;;;;;3.77;2.10;;;23.10;91.90;;;;;;4999259;28;20638;-80
2021/01/10 09:49:16;;;;;;;1.93;1.03;;;23.10;92.20;;;;;;4994108;28;20192;-81
2021/01/10 09:51:51;;;;;;;2.80;0.60;;;23.00;92.10;;;;;;4983616;28;20240;-86
2021/01/10 09:54:24;;;;;;;1.17;0.47;;;23.00;92.10;;;;;;4987311;28;20499;-79
2021/01/10 09:56:59;;;;;;;1.53;0.50;;;23.00;92.00;;;;;;4990069;28;20289;-83
2021/01/10 09:59:32;;;;;;;1.27;0.60;;;22.90;92.10;;;;;;4990449;28;20181;-84
2021/01/10 10:02:01;;;;;;;2.40;0.63;;;23.00;92.20;;;;;;4991141;28;20182;-77
2021/01/10 10:04:29;;;;;;;0.87;0.50;;;22.90;92.00;;;;;;4988655;28;20241;-82
2021/01/10 10:06:56;;;;;;;2.87;0.70;;;22.90;92.10;;;;;;4990406;28;20182;-78
2021/01/10 10:09:24;;;;;;;3.10;0.60;;;22.90;92.10;;;;;;4991677;28;20194;-83
2021/01/10 10:12:06;;;;;;;1.93;0.43;;;22.90;92.00;;;;;;4991930;28;20635;-80
2021/01/10 10:14:34;;;;;;;3.20;0.60;;;22.80;92.10;;;;;;4986492;28;20218;-79
2021/01/10 10:17:01;;;;;;;1.10;0.60;;;22.80;92.10;;;;;;4983892;28;20179;-84
2021/01/10 10:19:29;;;;;;;1.43;0.87;;;22.80;92.20;;;;;;4988112;28;20177;-78
2021/01/10 10:21:57;;;;;;;1.47;0.73;;;22.80;92.30;;;;;;4986472;28;20610;-80
2021/01/10 10:24:24;;;;;;;5.90;1.63;;;22.80;92.30;;;;;;4989823;28;20178;-78
2021/01/10 10:26:52;;;;;;;5.00;3.27;;;22.80;92.40;;;;;;4982727;28;20199;-81
2021/01/10 10:29:19;;;;;;;1.20;0.50;;;22.80;92.40;;;;;;4990914;28;20758;-80
2021/01/10 10:31:49;;;;;;;1.07;0.50;;;22.70;92.40;;;;;;4990948;28;20195;-75
2021/01/10 10:34:16;;;;;;;3.30;0.70;;;22.70;92.50;;;;;;4989854;28;20297;-77
2021/01/10 10:36:44;;;;;;;3.30;0.73;;;22.70;92.50;;;;;;4992661;28;20185;-78
2021/01/10 10:39:11;;;;;;;1.10;0.50;;;22.70;92.60;;;;;;4986454;28;20633;-76
2021/01/10 10:41:38;;;;;;;1.03;0.50;;;22.60;92.60;;;;;;4985609;28;20702;-76
2021/01/10 10:44:06;;;;;;;1.27;0.80;;;22.60;92.80;;;;;;4988237;28;20178;-81
2021/01/10 10:46:34;;;;;;;1.10;0.63;;;22.60;92.90;;;;;;4984508;28;20265;-76
2021/01/10 10:49:01;;;;;;;1.40;0.60;;;22.60;92.90;;;;;;4982328;28;20556;-76
2021/01/10 10:51:32;;;;;;;2.63;0.57;;;22.60;93.00;;;;;;4982333;28;20191;-80
2021/01/10 10:53:59;;;;;;;0.73;0.60;;;22.60;93.10;;;;;;4986303;28;20660;-77
2021/01/10 10:56:39;;;;;;;0.80;0.60;;;22.60;93.20;;;;;;4983642;28;20193;-79
2021/01/10 10:59:07;;;;;;;1.53;0.40;;;22.50;93.40;;;;;;4989378;28;20178;-76
2021/01/10 11:01:52;;;;;;;4.03;0.63;;;22.50;93.50;;;;;;4981791;28;20178;-75
2021/01/10 11:04:19;;;;;;;1.10;0.57;;;22.50;93.60;;;;;;4987589;28;20221;-78
2021/01/10 11:06:47;;;;;;;0.67;0.40;;;22.50;93.60;;;;;;4984660;28;20187;-77
2021/01/10 11:09:17;;;;;;;4.67;2.20;;;22.50;93.70;;;;;;4988681;28;20177;-76
2021/01/10 11:11:47;;;;;;;6.03;3.83;;;22.50;93.50;;;;;;4987682;28;20182;-77
2021/01/10 11:14:17;;;;;;;0.40;0.40;;;22.50;93.50;;;;;;4990894;28;20237;-84
2021/01/10 11:16:50;;;;;;;2.93;0.63;;;22.50;93.50;;;;;;4987254;28;20178;-77
2021/01/10 11:19:17;;;;;;;0.50;0.40;;;22.40;93.50;;;;;;4986665;28;20228;-75
2021/01/10 11:21:47;;;;;;;3.40;0.63;;;22.40;93.60;;;;;;4990467;28;20182;-78
2021/01/10 11:24:15;;;;;;;1.70;0.80;;;22.40;93.50;;;;;;4985785;28;20185;-77
2021/01/10 11:26:44;;;;;;;1.60;0.50;;;22.40;93.40;;;;;;4987132;28;20243;-75
2021/01/10 11:29:13;;;;;;;2.67;0.70;;;22.40;93.50;;;;;;4986765;28;20213;-76
2021/01/10 11:31:42;;;;;;;1.40;0.57;;;22.40;93.50;;;;;;4982071;28;20185;-74
2021/01/10 11:34:13;;;;;;;2.77;0.50;;;22.40;93.50;;;;;;4990100;28;20613;-74
2021/01/10 11:36:51;;;;;;;1.13;0.50;;;22.40;93.30;;;;;;4986764;28;20181;-77
2021/01/10 11:39:20;;;;;;;0.33;0.33;;;22.40;93.30;;;;;;4987101;28;20182;-76
2021/01/10 11:41:53;;;;;;;1.17;0.30;;;22.40;93.40;;;;;;4987253;28;20202;-76
2021/01/10 11:44:22;;;;;;;2.53;0.87;;;22.30;93.40;;;;;;4991646;28;20183;-76
2021/01/10 11:46:51;;;;;;;3.03;0.90;;;22.40;93.50;;;;;;4990986;28;20210;-78
2021/01/10 11:49:19;;;;;;;3.10;1.17;;;22.30;93.60;;;;;;4989266;28;20589;-76
2021/01/10 11:51:47;;;;;;;2.83;0.77;;;22.30;93.40;;;;;;4990774;28;20224;-76
2021/01/10 11:54:15;;;;;;;1.77;0.80;;;22.30;93.50;;;;;;4991365;28;20269;-75
2021/01/10 11:56:43;;;;;;;3.03;0.67;;;22.30;93.50;;;;;;4990506;28;20240;-76
2021/01/10 11:59:14;;;;;;;1.93;0.47;;;22.20;93.50;;;;;;4988074;28;20189;-76
2021/01/10 12:01:42;;;;;;;3.30;0.60;;;22.30;93.70;;;;;;4986954;28;20186;-75
2021/01/10 12:04:10;;;;;;;2.10;0.50;;;22.20;93.70;;;;;;4985691;28;20209;-76
2021/01/10 12:06:39;;;;;;;2.00;0.50;;;22.30;93.70;;;;;;4990250;28;20303;-75
2021/01/10 12:09:10;;;;;;;2.97;0.90;;;22.30;93.80;;;;;;4988239;28;20192;-77
2021/01/10 12:11:39;;;;;;;3.40;0.67;;;22.20;93.80;;;;;;4986883;28;20179;-76
2021/01/10 12:14:07;;;;;;;2.13;0.70;;;22.20;94.00;;;;;;4983201;28;20206;-75
2021/01/10 12:16:37;;;;;;;0.93;0.50;;;22.20;94.10;;;;;;4990689;28;20256;-79
2021/01/10 12:19:05;;;;;;;7.40;0.90;;;22.30;94.00;;;;;;4986328;28;20184;-75
2021/01/10 12:21:32;;;;;;;2.47;0.57;;;22.20;94.10;;;;;;4990577;28;20182;-76
2021/01/10 12:24:00;;;;;;;5.93;0.53;;;22.20;94.10;;;;;;4988079;28;20310;-76
2021/01/10 12:26:29;;;;;;;3.13;0.73;;;22.20;94.10;;;;;;4982972;28;20177;-75
2021/01/10 12:28:56;;;;;;;5.27;1.63;;;22.10;94.30;;;;;;4989520;28;20548;-75
2021/01/10 12:31:27;;;;;;;1.20;0.50;;;22.10;94.40;;;;;;4992952;28;20178;-76
2021/01/10 12:33:54;;;;;;;1.80;0.87;;;22.10;94.40;;;;;;4989684;28;20214;-76
2021/01/10 12:36:24;;;;;;;3.40;1.27;;;22.00;94.50;;;;;;4988891;28;20178;-76
2021/01/10 12:38:51;;;;;;;0.53;0.43;;;22.00;94.50;;;;;;4993978;28;20189;-77
2021/01/10 12:41:18;;;;;;;3.50;0.70;;;22.00;94.60;;;;;;4991941;28;20590;-76
2021/01/10 12:43:46;;;;;;;2.77;0.40;;;21.90;94.70;;;;;;4995340;28;20174;-75
2021/01/10 12:46:13;;;;;;;0.50;0.50;;;21.90;94.80;;;;;;4990197;28;20273;-74
2021/01/10 12:48:40;;;;;;;1.40;0.60;;;21.90;94.80;;;;;;4993064;28;20181;-75
2021/01/10 12:51:08;;;;;;;1.47;0.43;;;21.90;94.80;;;;;;4993590;28;20178;-74
2021/01/10 12:53:35;;;;;;;3.20;0.77;;;21.90;94.90;;;;;;4989982;28;20578;-74
2021/01/10 12:56:02;;;;;;;0.93;0.60;;;21.80;94.80;;;;;;4987053;28;20660;-75
2021/01/10 12:58:30;;;;;;;1.63;0.60;;;21.80;94.90;;;;;;4987326;28;20206;-77
2021/01/10 13:00:57;;;;;;;1.20;0.40;;;21.80;94.90;;;;;;4989836;28;20647;-75
2021/01/10 13:03:25;;;;;;;3.37;0.60;;;21.80;94.90;;;;;;4988363;28;20185;-74
2021/01/10 13:05:52;;;;;;;6.50;0.53;;;21.80;95.00;;;;;;4989147;28;20226;-73